sensor_id;sensor_type;location;lat;lon;timestamp;P1;durP1;ratioP1;P2;durP2;ratioP2
8213;SDS011;4148;47.974;7.824;2023-02-01T00:01:54;8.20;;;5.53;;
8213;SDS011;4148;47.974;7.824;2023-02-01T00:04:22;7.73;;;5.50;;
8213;SDS011;4148;47.974;7.824;2023-02-01T00:06:52;8.23;;;5.20;;
8213;SDS011;4148;47.974;7.824;2023-02-01T00:09:20;8.93;;;5.67;;
8213;SDS011;4148;47.974;7.824;2023-02-01T00:11:47;8.57;;;5.27;;
8213;SDS011;4148;47.974;7.824;2023-02-01T00:14:15;8.00;;;5.23;;
8213;SDS011;4148;47.974;7.824;2023-02-01T00:16:43;7.57;;;5.27;;
8213;SDS011;4148;47.974;7.824;2023-02-01T00:19:12;6.83;;;5.20;;
8213;SDS011;4148;47.974;7.824;2023-02-01T00:21:41;7.07;;;5.03;;
8213;SDS011;4148;47.974;7.824;2023-02-01T00:24:11;6.70;;;4.70;;
8213;SDS011;4148;47.974;7.824;2023-02-01T00:26:40;9.63;;;5.20;;
8213;SDS011;4148;47.974;7.824;2023-02-01T00:29:10;12.30;;;6.40;;
8213;SDS011;4148;47.974;7.824;2023-02-01T00:31:39;7.70;;;4.60;;
8213;SDS011;4148;47.974;7.824;2023-02-01T00:34:09;6.80;;;4.30;;
8213;SDS011;4148;47.974;7.824;2023-02-01T00:36:38;7.00;;;5.10;;
8213;SDS011;4148;47.974;7.824;2023-02-01T00:39:07;8.60;;;4.50;;
8213;SDS011;4148;47.974;7.824;2023-02-01T00:41:36;7.77;;;4.47;;
8213;SDS011;4148;47.974;7.824;2023-02-01T00:44:04;6.47;;;3.93;;
8213;SDS011;4148;47.974;7.824;2023-02-01T00:46:32;7.00;;;4.40;;
8213;SDS011;4148;47.974;7.824;2023-02-01T00:49:00;6.37;;;4.07;;
8213;SDS011;4148;47.974;7.824;2023-02-01T00:51:28;6.93;;;4.57;;
8213;SDS011;4148;47.974;7.824;2023-02-01T00:53:56;8.97;;;4.77;;
8213;SDS011;4148;47.974;7.824;2023-02-01T00:56:24;6.20;;;4.67;;
8213;SDS011;4148;47.974;7.824;2023-02-01T00:58:55;7.03;;;4.40;;
8213;SDS011;4148;47.974;7.824;2023-02-01T01:01:24;7.53;;;4.40;;
8213;SDS011;4148;47.974;7.824;2023-02-01T01:03:53;5.60;;;4.17;;
8213;SDS011;4148;47.974;7.824;2023-02-01T01:06:23;6.37;;;4.30;;
8213;SDS011;4148;47.974;7.824;2023-02-01T01:08:52;7.17;;;4.53;;
8213;SDS011;4148;47.974;7.824;2023-02-01T01:11:21;6.47;;;4.50;;
8213;SDS011;4148;47.974;7.824;2023-02-01T01:13:52;7.37;;;4.10;;
8213;SDS011;4148;47.974;7.824;2023-02-01T01:16:24;7.17;;;4.20;;
8213;SDS011;4148;47.974;7.824;2023-02-01T01:18:53;6.40;;;3.93;;
8213;SDS011;4148;47.974;7.824;2023-02-01T01:21:22;5.83;;;4.13;;
8213;SDS011;4148;47.974;7.824;2023-02-01T01:23:50;7.47;;;4.30;;
8213;SDS011;4148;47.974;7.824;2023-02-01T01:26:19;6.30;;;4.80;;
8213;SDS011;4148;47.974;7.824;2023-02-01T01:28:48;5.77;;;4.53;;
8213;SDS011;4148;47.974;7.824;2023-02-01T01:31:19;8.70;;;4.50;;
8213;SDS011;4148;47.974;7.824;2023-02-01T01:33:49;5.57;;;4.60;;
8213;SDS011;4148;47.974;7.824;2023-02-01T01:36:19;6.23;;;4.40;;
8213;SDS011;4148;47.974;7.824;2023-02-01T01:38:48;6.93;;;4.33;;
8213;SDS011;4148;47.974;7.824;2023-02-01T01:41:18;7.47;;;4.50;;
8213;SDS011;4148;47.974;7.824;2023-02-01T01:43:51;8.27;;;5.20;;
8213;SDS011;4148;47.974;7.824;2023-02-01T01:46:22;6.47;;;4.70;;
8213;SDS011;4148;47.974;7.824;2023-02-01T01:48:55;6.80;;;4.47;;
8213;SDS011;4148;47.974;7.824;2023-02-01T01:51:29;7.10;;;5.10;;
8213;SDS011;4148;47.974;7.824;2023-02-01T01:53:59;8.00;;;5.00;;
8213;SDS011;4148;47.974;7.824;2023-02-01T01:56:31;5.33;;;3.90;;
8213;SDS011;4148;47.974;7.824;2023-02-01T01:59:01;7.27;;;4.67;;
8213;SDS011;4148;47.974;7.824;2023-02-01T02:01:29;8.47;;;4.00;;
8213;SDS011;4148;47.974;7.824;2023-02-01T02:03:58;8.83;;;4.30;;
8213;SDS011;4148;47.974;7.824;2023-02-01T02:06:30;5.60;;;4.03;;
8213;SDS011;4148;47.974;7.824;2023-02-01T02:09:06;6.57;;;3.90;;
8213;SDS011;4148;47.974;7.824;2023-02-01T02:11:34;7.20;;;4.10;;
8213;SDS011;4148;47.974;7.824;2023-02-01T02:14:01;7.63;;;4.30;;
8213;SDS011;4148;47.974;7.824;2023-02-01T02:16:38;7.50;;;4.57;;
8213;SDS011;4148;47.974;7.824;2023-02-01T02:19:25;6.70;;;4.20;;
8213;SDS011;4148;47.974;7.824;2023-02-01T02:22:24;5.73;;;3.90;;
8213;SDS011;4148;47.974;7.824;2023-02-01T02:25:27;7.63;;;4.20;;
8213;SDS011;4148;47.974;7.824;2023-02-01T02:28:14;8.43;;;4.00;;
8213;SDS011;4148;47.974;7.824;2023-02-01T02:31:03;7.20;;;3.97;;
8213;SDS011;4148;47.974;7.824;2023-02-01T02:33:53;5.77;;;3.73;;
8213;SDS011;4148;47.974;7.824;2023-02-01T02:36:34;6.63;;;4.30;;
8213;SDS011;4148;47.974;7.824;2023-02-01T02:39:12;6.63;;;4.10;;
8213;SDS011;4148;47.974;7.824;2023-02-01T02:41:49;5.67;;;3.33;;
8213;SDS011;4148;47.974;7.824;2023-02-01T02:44:46;7.67;;;3.73;;
8213;SDS011;4148;47.974;7.824;2023-02-01T02:47:36;5.83;;;3.87;;
8213;SDS011;4148;47.974;7.824;2023-02-01T02:50:14;4.20;;;3.10;;
8213;SDS011;4148;47.974;7.824;2023-02-01T02:53:07;6.80;;;4.20;;
8213;SDS011;4148;47.974;7.824;2023-02-01T02:55:57;5.77;;;3.97;;
8213;SDS011;4148;47.974;7.824;2023-02-01T02:58:44;4.63;;;3.37;;
8213;SDS011;4148;47.974;7.824;2023-02-01T03:01:31;6.93;;;3.73;;
8213;SDS011;4148;47.974;7.824;2023-02-01T03:04:17;6.50;;;3.67;;
8213;SDS011;4148;47.974;7.824;2023-02-01T03:06:47;6.10;;;3.67;;
8213;SDS011;4148;47.974;7.824;2023-02-01T03:09:17;4.83;;;3.50;;
8213;SDS011;4148;47.974;7.824;2023-02-01T03:11:48;5.00;;;3.43;;
8213;SDS011;4148;47.974;7.824;2023-02-01T03:14:36;6.00;;;3.77;;
8213;SDS011;4148;47.974;7.824;2023-02-01T03:17:08;7.97;;;4.57;;
8213;SDS011;4148;47.974;7.824;2023-02-01T03:19:39;6.63;;;3.93;;
8213;SDS011;4148;47.974;7.824;2023-02-01T03:22:16;4.90;;;3.57;;
8213;SDS011;4148;47.974;7.824;2023-02-01T03:24:47;5.80;;;3.70;;
8213;SDS011;4148;47.974;7.824;2023-02-01T03:27:20;8.00;;;4.33;;
8213;SDS011;4148;47.974;7.824;2023-02-01T03:29:51;7.43;;;4.53;;
8213;SDS011;4148;47.974;7.824;2023-02-01T03:32:25;6.90;;;4.87;;
8213;SDS011;4148;47.974;7.824;2023-02-01T03:34:53;7.63;;;3.73;;
8213;SDS011;4148;47.974;7.824;2023-02-01T03:37:24;8.90;;;4.73;;
8213;SDS011;4148;47.974;7.824;2023-02-01T03:39:57;7.13;;;4.50;;
8213;SDS011;4148;47.974;7.824;2023-02-01T03:42:28;5.43;;;3.90;;
8213;SDS011;4148;47.974;7.824;2023-02-01T03:45:03;9.20;;;4.90;;
8213;SDS011;4148;47.974;7.824;2023-02-01T03:47:37;8.03;;;4.97;;
8213;SDS011;4148;47.974;7.824;2023-02-01T03:50:09;6.60;;;4.40;;
8213;SDS011;4148;47.974;7.824;2023-02-01T03:52:41;8.03;;;5.67;;
8213;SDS011;4148;47.974;7.824;2023-02-01T03:55:11;7.30;;;4.70;;
8213;SDS011;4148;47.974;7.824;2023-02-01T03:57:43;7.60;;;4.67;;
8213;SDS011;4148;47.974;7.824;2023-02-01T04:00:16;6.30;;;4.90;;
8213;SDS011;4148;47.974;7.824;2023-02-01T04:02:48;9.83;;;5.40;;
8213;SDS011;4148;47.974;7.824;2023-02-01T04:05:16;7.83;;;4.93;;
8213;SDS011;4148;47.974;7.824;2023-02-01T04:07:45;7.50;;;4.60;;
8213;SDS011;4148;47.974;7.824;2023-02-01T04:10:13;9.73;;;5.80;;
8213;SDS011;4148;47.974;7.824;2023-02-01T04:12:44;11.27;;;5.90;;
8213;SDS011;4148;47.974;7.824;2023-02-01T04:15:12;8.37;;;5.07;;
8213;SDS011;4148;47.974;7.824;2023-02-01T04:17:40;7.97;;;5.10;;
8213;SDS011;4148;47.974;7.824;2023-02-01T04:20:08;7.27;;;5.17;;
8213;SDS011;4148;47.974;7.824;2023-02-01T04:22:37;9.27;;;5.67;;
8213;SDS011;4148;47.974;7.824;2023-02-01T04:25:07;10.00;;;6.03;;
8213;SDS011;4148;47.974;7.824;2023-02-01T04:27:35;8.00;;;5.20;;
8213;SDS011;4148;47.974;7.824;2023-02-01T04:30:03;8.80;;;5.80;;
8213;SDS011;4148;47.974;7.824;2023-02-01T04:32:35;8.77;;;5.57;;
8213;SDS011;4148;47.974;7.824;2023-02-01T04:35:03;10.00;;;5.20;;
8213;SDS011;4148;47.974;7.824;2023-02-01T04:37:32;9.27;;;5.40;;
8213;SDS011;4148;47.974;7.824;2023-02-01T04:40:00;9.00;;;5.10;;
8213;SDS011;4148;47.974;7.824;2023-02-01T04:42:31;8.10;;;4.83;;
8213;SDS011;4148;47.974;7.824;2023-02-01T04:44:59;9.43;;;5.10;;
8213;SDS011;4148;47.974;7.824;2023-02-01T04:47:26;6.40;;;4.70;;
8213;SDS011;4148;47.974;7.824;2023-02-01T04:49:54;9.67;;;4.70;;
8213;SDS011;4148;47.974;7.824;2023-02-01T04:52:22;5.77;;;4.40;;
8213;SDS011;4148;47.974;7.824;2023-02-01T04:54:50;7.40;;;4.97;;
8213;SDS011;4148;47.974;7.824;2023-02-01T04:57:20;7.37;;;5.00;;
8213;SDS011;4148;47.974;7.824;2023-02-01T04:59:49;5.97;;;3.90;;
8213;SDS011;4148;47.974;7.824;2023-02-01T05:02:17;6.50;;;4.90;;
8213;SDS011;4148;47.974;7.824;2023-02-01T05:04:45;6.37;;;3.87;;
8213;SDS011;4148;47.974;7.824;2023-02-01T05:07:13;6.00;;;3.77;;
8213;SDS011;4148;47.974;7.824;2023-02-01T05:09:40;5.20;;;4.00;;
8213;SDS011;4148;47.974;7.824;2023-02-01T05:12:08;9.00;;;4.73;;
8213;SDS011;4148;47.974;7.824;2023-02-01T05:14:56;6.80;;;4.27;;
8213;SDS011;4148;47.974;7.824;2023-02-01T05:17:23;7.83;;;4.27;;
8213;SDS011;4148;47.974;7.824;2023-02-01T05:19:51;6.80;;;4.17;;
8213;SDS011;4148;47.974;7.824;2023-02-01T05:22:19;6.60;;;3.80;;
8213;SDS011;4148;47.974;7.824;2023-02-01T05:24:47;5.70;;;4.30;;
8213;SDS011;4148;47.974;7.824;2023-02-01T05:27:15;9.27;;;4.53;;
8213;SDS011;4148;47.974;7.824;2023-02-01T05:29:43;7.53;;;4.37;;
8213;SDS011;4148;47.974;7.824;2023-02-01T05:32:12;8.73;;;4.87;;
8213;SDS011;4148;47.974;7.824;2023-02-01T05:34:47;7.07;;;4.40;;
8213;SDS011;4148;47.974;7.824;2023-02-01T05:37:16;8.00;;;4.70;;
8213;SDS011;4148;47.974;7.824;2023-02-01T05:39:43;9.93;;;4.70;;
8213;SDS011;4148;47.974;7.824;2023-02-01T05:42:11;7.50;;;4.57;;
8213;SDS011;4148;47.974;7.824;2023-02-01T05:44:39;8.60;;;4.37;;
8213;SDS011;4148;47.974;7.824;2023-02-01T05:47:07;7.83;;;4.67;;
8213;SDS011;4148;47.974;7.824;2023-02-01T05:49:36;7.67;;;4.30;;
8213;SDS011;4148;47.974;7.824;2023-02-01T05:52:04;7.07;;;4.20;;
8213;SDS011;4148;47.974;7.824;2023-02-01T05:54:32;7.53;;;4.73;;
8213;SDS011;4148;47.974;7.824;2023-02-01T05:57:00;7.70;;;4.37;;
8213;SDS011;4148;47.974;7.824;2023-02-01T05:59:27;8.00;;;4.70;;
8213;SDS011;4148;47.974;7.824;2023-02-01T06:01:55;5.93;;;3.80;;
8213;SDS011;4148;47.974;7.824;2023-02-01T06:04:23;7.97;;;4.43;;
8213;SDS011;4148;47.974;7.824;2023-02-01T06:06:53;6.53;;;4.07;;
8213;SDS011;4148;47.974;7.824;2023-02-01T06:09:20;6.20;;;3.93;;
8213;SDS011;4148;47.974;7.824;2023-02-01T06:11:48;8.47;;;3.97;;
8213;SDS011;4148;47.974;7.824;2023-02-01T06:14:16;4.63;;;3.27;;
8213;SDS011;4148;47.974;7.824;2023-02-01T06:16:44;6.43;;;3.80;;
8213;SDS011;4148;47.974;7.824;2023-02-01T06:19:12;6.07;;;3.50;;
8213;SDS011;4148;47.974;7.824;2023-02-01T06:21:40;6.40;;;4.20;;
8213;SDS011;4148;47.974;7.824;2023-02-01T06:24:09;6.53;;;3.60;;
8213;SDS011;4148;47.974;7.824;2023-02-01T06:26:37;5.00;;;3.40;;
8213;SDS011;4148;47.974;7.824;2023-02-01T06:29:06;4.63;;;3.27;;
8213;SDS011;4148;47.974;7.824;2023-02-01T06:31:34;6.33;;;3.80;;
8213;SDS011;4148;47.974;7.824;2023-02-01T06:34:01;4.80;;;3.20;;
8213;SDS011;4148;47.974;7.824;2023-02-01T06:36:30;6.40;;;3.60;;
8213;SDS011;4148;47.974;7.824;2023-02-01T06:38:57;6.37;;;3.20;;
8213;SDS011;4148;47.974;7.824;2023-02-01T06:41:27;5.70;;;3.83;;
8213;SDS011;4148;47.974;7.824;2023-02-01T06:43:55;4.80;;;3.17;;
8213;SDS011;4148;47.974;7.824;2023-02-01T06:46:23;5.27;;;3.40;;
8213;SDS011;4148;47.974;7.824;2023-02-01T06:48:51;4.70;;;2.93;;
8213;SDS011;4148;47.974;7.824;2023-02-01T06:51:19;4.90;;;2.90;;
8213;SDS011;4148;47.974;7.824;2023-02-01T06:53:49;5.03;;;2.93;;
8213;SDS011;4148;47.974;7.824;2023-02-01T06:56:17;4.60;;;2.50;;
8213;SDS011;4148;47.974;7.824;2023-02-01T06:58:47;5.53;;;2.70;;
8213;SDS011;4148;47.974;7.824;2023-02-01T07:01:15;3.97;;;2.87;;
8213;SDS011;4148;47.974;7.824;2023-02-01T07:03:46;4.90;;;2.93;;
8213;SDS011;4148;47.974;7.824;2023-02-01T07:06:15;4.73;;;3.00;;
8213;SDS011;4148;47.974;7.824;2023-02-01T07:08:43;6.17;;;2.50;;
8213;SDS011;4148;47.974;7.824;2023-02-01T07:11:12;5.20;;;2.80;;
8213;SDS011;4148;47.974;7.824;2023-02-01T07:13:41;2.93;;;2.10;;
8213;SDS011;4148;47.974;7.824;2023-02-01T07:16:12;4.10;;;2.77;;
8213;SDS011;4148;47.974;7.824;2023-02-01T07:18:41;3.80;;;2.40;;
8213;SDS011;4148;47.974;7.824;2023-02-01T07:21:09;4.17;;;2.30;;
8213;SDS011;4148;47.974;7.824;2023-02-01T07:23:37;4.20;;;2.10;;
8213;SDS011;4148;47.974;7.824;2023-02-01T07:26:05;4.23;;;2.60;;
8213;SDS011;4148;47.974;7.824;2023-02-01T07:28:35;3.17;;;2.40;;
8213;SDS011;4148;47.974;7.824;2023-02-01T07:31:04;3.93;;;2.70;;
8213;SDS011;4148;47.974;7.824;2023-02-01T07:33:34;4.43;;;2.30;;
8213;SDS011;4148;47.974;7.824;2023-02-01T07:36:03;4.33;;;2.50;;
8213;SDS011;4148;47.974;7.824;2023-02-01T07:38:33;5.60;;;2.80;;
8213;SDS011;4148;47.974;7.824;2023-02-01T07:41:02;4.03;;;2.90;;
8213;SDS011;4148;47.974;7.824;2023-02-01T07:43:31;6.67;;;2.93;;
8213;SDS011;4148;47.974;7.824;2023-02-01T07:46:00;4.20;;;2.87;;
8213;SDS011;4148;47.974;7.824;2023-02-01T07:48:29;5.57;;;3.23;;
8213;SDS011;4148;47.974;7.824;2023-02-01T07:51:01;5.37;;;4.13;;
8213;SDS011;4148;47.974;7.824;2023-02-01T07:53:30;6.47;;;3.33;;
8213;SDS011;4148;47.974;7.824;2023-02-01T07:56:00;6.80;;;4.03;;
8213;SDS011;4148;47.974;7.824;2023-02-01T07:58:28;4.70;;;3.30;;
8213;SDS011;4148;47.974;7.824;2023-02-01T08:00:56;6.37;;;3.70;;
8213;SDS011;4148;47.974;7.824;2023-02-01T08:03:42;5.33;;;3.27;;
8213;SDS011;4148;47.974;7.824;2023-02-01T08:06:11;4.43;;;3.10;;
8213;SDS011;4148;47.974;7.824;2023-02-01T08:08:39;4.50;;;3.03;;
8213;SDS011;4148;47.974;7.824;2023-02-01T08:11:07;7.80;;;4.07;;
8213;SDS011;4148;47.974;7.824;2023-02-01T08:13:34;5.13;;;3.40;;
8213;SDS011;4148;47.974;7.824;2023-02-01T08:16:03;4.40;;;3.20;;
8213;SDS011;4148;47.974;7.824;2023-02-01T08:18:32;5.93;;;2.60;;
8213;SDS011;4148;47.974;7.824;2023-02-01T08:21:02;5.17;;;3.00;;
8213;SDS011;4148;47.974;7.824;2023-02-01T08:23:32;5.43;;;3.07;;
8213;SDS011;4148;47.974;7.824;2023-02-01T08:26:04;3.33;;;2.53;;
8213;SDS011;4148;47.974;7.824;2023-02-01T08:28:33;5.50;;;3.77;;
8213;SDS011;4148;47.974;7.824;2023-02-01T08:31:06;4.40;;;2.90;;
8213;SDS011;4148;47.974;7.824;2023-02-01T08:33:36;5.10;;;2.97;;
8213;SDS011;4148;47.974;7.824;2023-02-01T08:36:04;4.90;;;2.50;;
8213;SDS011;4148;47.974;7.824;2023-02-01T08:38:35;3.20;;;2.77;;
8213;SDS011;4148;47.974;7.824;2023-02-01T08:41:04;5.20;;;3.53;;
8213;SDS011;4148;47.974;7.824;2023-02-01T08:43:33;3.93;;;2.80;;
8213;SDS011;4148;47.974;7.824;2023-02-01T08:46:01;4.07;;;2.93;;
8213;SDS011;4148;47.974;7.824;2023-02-01T08:48:29;4.37;;;2.50;;
8213;SDS011;4148;47.974;7.824;2023-02-01T08:50:57;8.30;;;4.57;;
8213;SDS011;4148;47.974;7.824;2023-02-01T08:53:27;9.43;;;6.00;;
8213;SDS011;4148;47.974;7.824;2023-02-01T08:55:57;4.20;;;2.87;;
8213;SDS011;4148;47.974;7.824;2023-02-01T08:58:25;4.23;;;3.27;;
8213;SDS011;4148;47.974;7.824;2023-02-01T09:00:52;6.13;;;3.40;;
8213;SDS011;4148;47.974;7.824;2023-02-01T09:03:21;4.67;;;3.30;;
8213;SDS011;4148;47.974;7.824;2023-02-01T09:05:49;4.10;;;2.73;;
8213;SDS011;4148;47.974;7.824;2023-02-01T09:08:19;4.10;;;2.60;;
8213;SDS011;4148;47.974;7.824;2023-02-01T09:10:47;4.57;;;2.90;;
8213;SDS011;4148;47.974;7.824;2023-02-01T09:13:16;3.67;;;2.60;;
8213;SDS011;4148;47.974;7.824;2023-02-01T09:15:44;4.57;;;2.50;;
8213;SDS011;4148;47.974;7.824;2023-02-01T09:18:12;4.77;;;2.90;;
8213;SDS011;4148;47.974;7.824;2023-02-01T09:20:40;4.40;;;3.00;;
8213;SDS011;4148;47.974;7.824;2023-02-01T09:23:08;3.37;;;2.80;;
8213;SDS011;4148;47.974;7.824;2023-02-01T09:25:36;3.90;;;3.40;;
8213;SDS011;4148;47.974;7.824;2023-02-01T09:28:05;5.10;;;3.10;;
8213;SDS011;4148;47.974;7.824;2023-02-01T09:30:36;5.43;;;2.93;;
8213;SDS011;4148;47.974;7.824;2023-02-01T09:33:04;5.80;;;4.10;;
8213;SDS011;4148;47.974;7.824;2023-02-01T09:35:32;4.53;;;3.40;;
8213;SDS011;4148;47.974;7.824;2023-02-01T09:38:00;6.33;;;3.47;;
8213;SDS011;4148;47.974;7.824;2023-02-01T09:40:28;5.57;;;4.03;;
8213;SDS011;4148;47.974;7.824;2023-02-01T09:43:06;5.90;;;3.87;;
8213;SDS011;4148;47.974;7.824;2023-02-01T09:45:48;5.90;;;3.60;;
8213;SDS011;4148;47.974;7.824;2023-02-01T09:48:24;7.00;;;3.47;;
8213;SDS011;4148;47.974;7.824;2023-02-01T09:50:57;5.33;;;3.30;;
8213;SDS011;4148;47.974;7.824;2023-02-01T09:53:27;7.17;;;3.90;;
8213;SDS011;4148;47.974;7.824;2023-02-01T09:55:59;4.90;;;3.40;;
8213;SDS011;4148;47.974;7.824;2023-02-01T09:58:32;5.10;;;3.40;;
8213;SDS011;4148;47.974;7.824;2023-02-01T10:01:10;4.80;;;3.20;;
8213;SDS011;4148;47.974;7.824;2023-02-01T10:03:43;6.63;;;3.20;;
8213;SDS011;4148;47.974;7.824;2023-02-01T10:06:26;7.07;;;3.63;;
8213;SDS011;4148;47.974;7.824;2023-02-01T10:09:07;6.37;;;4.03;;
8213;SDS011;4148;47.974;7.824;2023-02-01T10:12:02;6.40;;;3.80;;
8213;SDS011;4148;47.974;7.824;2023-02-01T10:14:46;6.40;;;3.50;;
8213;SDS011;4148;47.974;7.824;2023-02-01T10:17:28;5.27;;;3.67;;
8213;SDS011;4148;47.974;7.824;2023-02-01T10:20:07;8.93;;;3.90;;
8213;SDS011;4148;47.974;7.824;2023-02-01T10:22:45;6.90;;;3.53;;
8213;SDS011;4148;47.974;7.824;2023-02-01T10:25:36;6.33;;;4.63;;
8213;SDS011;4148;47.974;7.824;2023-02-01T10:28:09;5.67;;;4.00;;
8213;SDS011;4148;47.974;7.824;2023-02-01T10:30:43;9.00;;;4.53;;
8213;SDS011;4148;47.974;7.824;2023-02-01T10:33:15;8.97;;;4.30;;
8213;SDS011;4148;47.974;7.824;2023-02-01T10:35:44;5.67;;;4.47;;
8213;SDS011;4148;47.974;7.824;2023-02-01T10:38:16;6.30;;;4.70;;
8213;SDS011;4148;47.974;7.824;2023-02-01T10:40:50;7.20;;;3.53;;
8213;SDS011;4148;47.974;7.824;2023-02-01T10:43:19;6.53;;;3.60;;
8213;SDS011;4148;47.974;7.824;2023-02-01T10:45:47;5.13;;;3.77;;
8213;SDS011;4148;47.974;7.824;2023-02-01T10:48:17;4.87;;;3.40;;
8213;SDS011;4148;47.974;7.824;2023-02-01T10:50:46;7.83;;;3.50;;
8213;SDS011;4148;47.974;7.824;2023-02-01T10:53:19;6.07;;;4.07;;
8213;SDS011;4148;47.974;7.824;2023-02-01T10:55:51;6.30;;;3.40;;
8213;SDS011;4148;47.974;7.824;2023-02-01T10:58:20;5.60;;;4.07;;
8213;SDS011;4148;47.974;7.824;2023-02-01T11:00:54;8.30;;;4.70;;
8213;SDS011;4148;47.974;7.824;2023-02-01T11:03:36;5.80;;;3.80;;
8213;SDS011;4148;47.974;7.824;2023-02-01T11:06:21;7.27;;;4.30;;
8213;SDS011;4148;47.974;7.824;2023-02-01T11:08:54;10.83;;;4.67;;
8213;SDS011;4148;47.974;7.824;2023-02-01T11:11:24;8.30;;;4.40;;
8213;SDS011;4148;47.974;7.824;2023-02-01T11:13:56;13.70;;;5.60;;
8213;SDS011;4148;47.974;7.824;2023-02-01T11:16:28;7.47;;;4.00;;
8213;SDS011;4148;47.974;7.824;2023-02-01T11:19:01;8.50;;;4.60;;
8213;SDS011;4148;47.974;7.824;2023-02-01T11:21:29;8.60;;;4.90;;
8213;SDS011;4148;47.974;7.824;2023-02-01T11:24:00;9.20;;;4.60;;
8213;SDS011;4148;47.974;7.824;2023-02-01T11:26:30;9.20;;;4.63;;
8213;SDS011;4148;47.974;7.824;2023-02-01T11:28:59;8.30;;;3.90;;
8213;SDS011;4148;47.974;7.824;2023-02-01T11:31:30;7.00;;;4.23;;
8213;SDS011;4148;47.974;7.824;2023-02-01T11:34:04;6.90;;;4.33;;
8213;SDS011;4148;47.974;7.824;2023-02-01T11:36:35;14.30;;;4.00;;
8213;SDS011;4148;47.974;7.824;2023-02-01T11:39:07;6.70;;;4.17;;
8213;SDS011;4148;47.974;7.824;2023-02-01T11:41:54;10.60;;;5.10;;
8213;SDS011;4148;47.974;7.824;2023-02-01T11:44:30;7.50;;;4.43;;
8213;SDS011;4148;47.974;7.824;2023-02-01T11:49:49;6.03;;;3.60;;
8213;SDS011;4148;47.974;7.824;2023-02-01T11:52:18;7.10;;;3.70;;
8213;SDS011;4148;47.974;7.824;2023-02-01T11:55:08;8.00;;;4.53;;
8213;SDS011;4148;47.974;7.824;2023-02-01T11:57:47;6.20;;;4.20;;
8213;SDS011;4148;47.974;7.824;2023-02-01T12:00:31;5.57;;;3.80;;
8213;SDS011;4148;47.974;7.824;2023-02-01T12:03:31;8.17;;;4.03;;
8213;SDS011;4148;47.974;7.824;2023-02-01T12:06:31;5.80;;;3.33;;
8213;SDS011;4148;47.974;7.824;2023-02-01T12:09:13;7.43;;;4.23;;
8213;SDS011;4148;47.974;7.824;2023-02-01T12:12:01;9.30;;;5.23;;
8213;SDS011;4148;47.974;7.824;2023-02-01T12:14:38;7.17;;;4.70;;
8213;SDS011;4148;47.974;7.824;2023-02-01T12:17:18;6.50;;;4.30;;
8213;SDS011;4148;47.974;7.824;2023-02-01T12:20:12;5.90;;;3.90;;
8213;SDS011;4148;47.974;7.824;2023-02-01T12:23:02;8.10;;;3.77;;
8213;SDS011;4148;47.974;7.824;2023-02-01T12:25:52;13.23;;;4.30;;
8213;SDS011;4148;47.974;7.824;2023-02-01T12:28:38;7.87;;;4.57;;
8213;SDS011;4148;47.974;7.824;2023-02-01T12:31:27;7.27;;;3.50;;
8213;SDS011;4148;47.974;7.824;2023-02-01T12:34:13;8.60;;;3.87;;
8213;SDS011;4148;47.974;7.824;2023-02-01T12:36:56;10.20;;;4.40;;
8213;SDS011;4148;47.974;7.824;2023-02-01T12:39:38;7.77;;;4.17;;
8213;SDS011;4148;47.974;7.824;2023-02-01T12:42:11;8.80;;;4.40;;
8213;SDS011;4148;47.974;7.824;2023-02-01T12:44:43;8.57;;;4.77;;
8213;SDS011;4148;47.974;7.824;2023-02-01T12:47:19;17.10;;;4.90;;
8213;SDS011;4148;47.974;7.824;2023-02-01T12:49:54;13.90;;;4.30;;
8213;SDS011;4148;47.974;7.824;2023-02-01T12:52:30;9.17;;;4.37;;
8213;SDS011;4148;47.974;7.824;2023-02-01T12:55:07;12.83;;;4.70;;
8213;SDS011;4148;47.974;7.824;2023-02-01T12:57:44;11.83;;;4.63;;
8213;SDS011;4148;47.974;7.824;2023-02-01T13:00:18;9.50;;;4.80;;
8213;SDS011;4148;47.974;7.824;2023-02-01T13:02:55;9.30;;;4.43;;
8213;SDS011;4148;47.974;7.824;2023-02-01T13:05:28;10.50;;;4.60;;
8213;SDS011;4148;47.974;7.824;2023-02-01T13:08:05;10.83;;;4.90;;
8213;SDS011;4148;47.974;7.824;2023-02-01T13:10:38;10.30;;;6.13;;
8213;SDS011;4148;47.974;7.824;2023-02-01T13:13:14;10.63;;;4.23;;
8213;SDS011;4148;47.974;7.824;2023-02-01T13:15:51;7.40;;;4.20;;
8213;SDS011;4148;47.974;7.824;2023-02-01T13:18:26;14.70;;;4.20;;
8213;SDS011;4148;47.974;7.824;2023-02-01T13:21:02;7.80;;;3.70;;
8213;SDS011;4148;47.974;7.824;2023-02-01T13:23:33;12.53;;;3.90;;
8213;SDS011;4148;47.974;7.824;2023-02-01T13:26:05;10.30;;;4.30;;
8213;SDS011;4148;47.974;7.824;2023-02-01T13:28:35;12.37;;;4.40;;
8213;SDS011;4148;47.974;7.824;2023-02-01T13:34:27;10.30;;;3.90;;
8213;SDS011;4148;47.974;7.824;2023-02-01T13:37:23;11.87;;;3.90;;
8213;SDS011;4148;47.974;7.824;2023-02-01T13:40:20;14.10;;;3.60;;
8213;SDS011;4148;47.974;7.824;2023-02-01T13:43:11;10.23;;;4.00;;
8213;SDS011;4148;47.974;7.824;2023-02-01T13:45:42;10.10;;;4.10;;
8213;SDS011;4148;47.974;7.824;2023-02-01T13:48:18;7.53;;;3.80;;
8213;SDS011;4148;47.974;7.824;2023-02-01T13:50:51;9.37;;;3.80;;
8213;SDS011;4148;47.974;7.824;2023-02-01T13:53:23;7.63;;;3.90;;
8213;SDS011;4148;47.974;7.824;2023-02-01T13:55:55;13.10;;;3.90;;
8213;SDS011;4148;47.974;7.824;2023-02-01T13:58:31;10.93;;;4.07;;
8213;SDS011;4148;47.974;7.824;2023-02-01T14:04:03;9.03;;;4.20;;
8213;SDS011;4148;47.974;7.824;2023-02-01T14:06:38;10.57;;;4.20;;
8213;SDS011;4148;47.974;7.824;2023-02-01T14:09:19;7.20;;;3.50;;
8213;SDS011;4148;47.974;7.824;2023-02-01T14:17:48;8.10;;;3.53;;
8213;SDS011;4148;47.974;7.824;2023-02-01T14:23:22;9.90;;;3.60;;
8213;SDS011;4148;47.974;7.824;2023-02-01T14:28:50;9.10;;;3.70;;
8213;SDS011;4148;47.974;7.824;2023-02-01T14:31:41;18.63;;;6.10;;
8213;SDS011;4148;47.974;7.824;2023-02-01T14:34:26;12.17;;;4.70;;
8213;SDS011;4148;47.974;7.824;2023-02-01T14:36:58;8.30;;;4.47;;
8213;SDS011;4148;47.974;7.824;2023-02-01T14:39:29;10.70;;;4.23;;
8213;SDS011;4148;47.974;7.824;2023-02-01T14:42:05;6.53;;;3.40;;
8213;SDS011;4148;47.974;7.824;2023-02-01T14:44:48;10.03;;;4.30;;
8213;SDS011;4148;47.974;7.824;2023-02-01T14:47:27;11.27;;;4.40;;
8213;SDS011;4148;47.974;7.824;2023-02-01T14:52:58;16.07;;;3.30;;
8213;SDS011;4148;47.974;7.824;2023-02-01T14:55:34;12.50;;;3.30;;
8213;SDS011;4148;47.974;7.824;2023-02-01T14:58:06;15.27;;;4.07;;
8213;SDS011;4148;47.974;7.824;2023-02-01T15:00:47;9.77;;;3.80;;
8213;SDS011;4148;47.974;7.824;2023-02-01T15:03:25;15.10;;;6.13;;
8213;SDS011;4148;47.974;7.824;2023-02-01T15:06:12;7.73;;;3.83;;
8213;SDS011;4148;47.974;7.824;2023-02-01T15:08:53;10.43;;;4.03;;
8213;SDS011;4148;47.974;7.824;2023-02-01T15:11:23;14.87;;;4.33;;
8213;SDS011;4148;47.974;7.824;2023-02-01T15:13:52;10.43;;;3.60;;
8213;SDS011;4148;47.974;7.824;2023-02-01T15:16:23;12.63;;;4.37;;
8213;SDS011;4148;47.974;7.824;2023-02-01T15:21:44;8.87;;;4.00;;
8213;SDS011;4148;47.974;7.824;2023-02-01T15:24:13;9.87;;;4.30;;
8213;SDS011;4148;47.974;7.824;2023-02-01T15:26:45;9.53;;;4.17;;
8213;SDS011;4148;47.974;7.824;2023-02-01T15:29:14;10.80;;;4.57;;
8213;SDS011;4148;47.974;7.824;2023-02-01T15:31:43;8.00;;;4.20;;
8213;SDS011;4148;47.974;7.824;2023-02-01T15:34:14;11.93;;;4.33;;
8213;SDS011;4148;47.974;7.824;2023-02-01T15:36:42;9.40;;;4.13;;
8213;SDS011;4148;47.974;7.824;2023-02-01T15:39:27;14.40;;;4.43;;
8213;SDS011;4148;47.974;7.824;2023-02-01T15:41:57;10.53;;;4.23;;
8213;SDS011;4148;47.974;7.824;2023-02-01T15:44:29;14.03;;;3.87;;
8213;SDS011;4148;47.974;7.824;2023-02-01T15:47:05;8.80;;;3.97;;
8213;SDS011;4148;47.974;7.824;2023-02-01T15:49:40;9.23;;;3.90;;
8213;SDS011;4148;47.974;7.824;2023-02-01T15:52:14;10.90;;;4.07;;
8213;SDS011;4148;47.974;7.824;2023-02-01T15:54:48;13.33;;;4.33;;
8213;SDS011;4148;47.974;7.824;2023-02-01T15:57:19;13.83;;;4.70;;
8213;SDS011;4148;47.974;7.824;2023-02-01T15:59:52;10.33;;;4.50;;
8213;SDS011;4148;47.974;7.824;2023-02-01T16:02:26;10.67;;;3.60;;
8213;SDS011;4148;47.974;7.824;2023-02-01T16:04:58;7.57;;;4.07;;
8213;SDS011;4148;47.974;7.824;2023-02-01T16:07:27;9.33;;;4.20;;
8213;SDS011;4148;47.974;7.824;2023-02-01T16:09:56;10.20;;;3.87;;
8213;SDS011;4148;47.974;7.824;2023-02-01T16:12:30;14.73;;;4.50;;
8213;SDS011;4148;47.974;7.824;2023-02-01T16:15:01;12.07;;;4.40;;